Time;durP1;ratioP1;P1;durP2;ratioP2;P2;SDS_P1;SDS_P2;PMS_P1;PMS_P2;Temp;Humidity;BMP_temperature;BMP_pressure;BME280_temperature;BME280_humidity;BME280_pressure;Samples;Min_cycle;Max_cycle;Signal;HPM_P1;HPM_P2
2022/10/21 00:01:32;;;;;;;2.17;1.40;;;9.50;82.30;;;;;;1924779;74;21100;-52
2022/10/21 00:04:02;;;;;;;3.30;2.17;;;9.50;82.70;;;;;;1924753;74;21018;-53
2022/10/21 00:06:31;;;;;;;5.47;1.62;;;9.50;82.80;;;;;;1925039;74;21061;-52
2022/10/21 00:09:00;;;;;;;5.70;2.12;;;9.50;83.20;;;;;;1924894;74;21077;-50
2022/10/21 00:11:30;;;;;;;3.15;2.20;;;9.50;83.00;;;;;;1924954;74;21461;-52
2022/10/21 00:13:59;;;;;;;2.22;1.82;;;9.50;83.30;;;;;;1924962;74;21080;-54
2022/10/21 00:16:28;;;;;;;3.00;2.27;;;9.50;83.10;;;;;;1924871;74;21057;-49
2022/10/21 00:18:57;;;;;;;4.30;2.20;;;9.60;83.20;;;;;;1924873;74;21007;-51
2022/10/21 00:21:26;;;;;;;2.22;1.62;;;9.60;83.30;;;;;;1924837;74;21112;-52
2022/10/21 00:23:55;;;;;;;2.50;2.30;;;9.60;83.30;;;;;;1924827;74;21064;-50
2022/10/21 00:26:25;;;;;;;2.25;1.95;;;9.60;83.50;;;;;;1924897;74;20987;-51
2022/10/21 00:28:57;;;;;;;2.05;1.85;;;9.70;83.50;;;;;;1924897;74;21137;-51
2022/10/21 00:31:26;;;;;;;2.08;1.87;;;9.60;83.70;;;;;;1924879;74;21076;-51
2022/10/21 00:33:56;;;;;;;4.25;2.30;;;9.60;84.30;;;;;;1924754;74;21497;-53
2022/10/21 00:36:25;;;;;;;3.05;1.72;;;9.60;84.10;;;;;;1924772;74;21068;-52
2022/10/21 00:38:56;;;;;;;3.47;1.70;;;9.60;84.30;;;;;;1924861;74;20987;-49
2022/10/21 00:41:25;;;;;;;2.45;2.08;;;9.60;84.80;;;;;;1924935;74;21014;-50
2022/10/21 00:44:03;;;;;;;3.25;2.05;;;9.60;84.90;;;;;;1924834;74;21070;-52
2022/10/21 00:46:37;;;;;;;2.98;2.10;;;9.60;85.00;;;;;;1924972;74;21057;-50
2022/10/21 00:49:18;;;;;;;3.58;2.27;;;9.60;85.20;;;;;;1924877;74;21002;-49
2022/10/21 00:51:50;;;;;;;2.27;2.08;;;9.60;85.20;;;;;;1913088;74;21040;-52
2022/10/21 00:54:22;;;;;;;3.25;2.25;;;9.60;85.30;;;;;;1905403;75;21007;-53
2022/10/21 00:56:52;;;;;;;5.95;1.92;;;9.60;85.30;;;;;;1905431;75;21430;-51
2022/10/21 00:59:23;;;;;;;4.37;2.35;;;9.60;85.70;;;;;;1905384;75;21015;-51
2022/10/21 01:01:52;;;;;;;3.00;2.55;;;9.60;85.90;;;;;;1905505;75;21458;-52
2022/10/21 01:04:21;;;;;;;4.20;2.50;;;9.60;86.20;;;;;;1905347;75;21072;-52
2022/10/21 01:06:51;;;;;;;2.80;2.25;;;9.60;86.00;;;;;;1905385;74;21009;-51
2022/10/21 01:09:21;;;;;;;2.95;2.40;;;9.60;86.20;;;;;;1905352;74;21105;-53
2022/10/21 01:11:50;;;;;;;2.30;1.95;;;9.70;86.40;;;;;;1905439;75;21003;-53
2022/10/21 01:14:39;;;;;;;3.85;2.27;;;9.60;86.60;;;;;;1905444;75;21149;-52
2022/10/21 01:17:16;;;;;;;2.70;2.37;;;9.70;86.60;;;;;;1905329;75;21044;-50
2022/10/21 01:20:20;;;;;;;2.75;2.52;;;9.70;86.80;;;;;;1905475;75;21094;-52
2022/10/21 01:22:56;;;;;;;5.85;2.22;;;9.70;86.30;;;;;;1843744;77;21128;-52
2022/10/21 01:25:25;;;;;;;;;;;9.70;86.50;;;;;;1896538;74;21094;-50
2022/10/21 01:28:26;;;;;;;2.70;2.22;;;9.70;87.30;;;;;;1904672;74;20188;-52
2022/10/21 01:31:14;;;;;;;3.45;3.05;;;9.70;86.70;;;;;;1905428;75;21097;-51
2022/10/21 01:33:49;;;;;;;3.05;2.37;;;9.70;87.00;;;;;;1905349;75;20972;-52
2022/10/21 01:36:24;;;;;;;2.98;2.05;;;9.70;86.90;;;;;;1905481;74;21097;-52
2022/10/21 01:38:55;;;;;;;3.80;3.00;;;9.70;87.00;;;;;;1889334;75;21011;-53
2022/10/21 01:41:30;;;;;;;2.20;2.00;;;9.70;87.30;;;;;;1905227;74;21035;-53
2022/10/21 01:44:13;;;;;;;5.00;2.70;;;9.70;87.20;;;;;;1904848;74;21043;-51
2022/10/21 01:46:58;;;;;;;2.90;1.98;;;9.70;87.30;;;;;;1905515;75;21126;-50
2022/10/21 01:49:42;;;;;;;2.58;2.15;;;9.70;87.60;;;;;;1905305;75;21007;-52
2022/10/21 01:52:12;;;;;;;4.42;2.25;;;9.70;87.70;;;;;;1915715;74;21104;-50
2022/10/21 01:54:44;;;;;;;4.30;2.35;;;9.70;87.70;;;;;;1924767;74;21453;-51
2022/10/21 01:57:15;;;;;;;7.70;2.50;;;9.70;87.70;;;;;;1924864;74;21522;-53
2022/10/21 01:59:46;;;;;;;3.25;2.30;;;9.70;87.80;;;;;;1924758;74;21080;-53
2022/10/21 02:02:16;;;;;;;5.22;2.52;;;9.70;87.80;;;;;;1924668;74;21006;-52
2022/10/21 02:04:47;;;;;;;5.42;2.58;;;9.70;87.80;;;;;;1924735;74;21282;-49
2022/10/21 02:07:16;;;;;;;3.80;2.60;;;9.70;88.00;;;;;;1924745;74;21030;-48
2022/10/21 02:09:45;;;;;;;3.25;2.45;;;9.80;87.70;;;;;;1924704;74;21018;-53
2022/10/21 02:12:16;;;;;;;4.92;2.37;;;9.80;87.70;;;;;;1924751;74;20983;-48
2022/10/21 02:14:48;;;;;;;5.00;2.83;;;9.80;87.50;;;;;;1924741;74;21061;-52
2022/10/21 02:17:20;;;;;;;4.85;2.42;;;9.80;87.60;;;;;;1924851;74;21047;-54
2022/10/21 02:19:49;;;;;;;4.08;2.67;;;9.80;87.70;;;;;;1924719;74;21064;-53
2022/10/21 02:22:21;;;;;;;3.55;2.60;;;9.80;87.90;;;;;;1924684;74;21088;-51
2022/10/21 02:24:59;;;;;;;6.00;2.70;;;9.80;88.00;;;;;;1924709;74;21430;-51
2022/10/21 02:27:28;;;;;;;2.95;2.20;;;9.80;88.30;;;;;;1924823;74;21006;-53
2022/10/21 02:29:59;;;;;;;3.62;2.58;;;9.80;88.20;;;;;;1924689;74;21082;-53
2022/10/21 02:32:34;;;;;;;4.72;2.85;;;9.80;88.00;;;;;;1924878;74;21047;-49
2022/10/21 02:35:35;;;;;;;4.97;3.67;;;9.80;88.00;;;;;;1924863;74;21452;-50
2022/10/21 02:38:29;;;;;;;4.28;2.60;;;9.80;88.10;;;;;;1924843;74;21047;-49
2022/10/21 02:41:03;;;;;;;5.78;2.60;;;9.80;87.90;;;;;;1924340;74;21485;-51
2022/10/21 02:43:38;;;;;;;3.15;2.17;;;9.80;87.90;;;;;;1924047;74;21418;-51
2022/10/21 02:46:10;;;;;;;3.65;2.55;;;9.80;87.90;;;;;;1925078;74;21011;-52
2022/10/21 02:48:42;;;;;;;3.10;2.80;;;9.80;87.70;;;;;;1924852;74;21051;-51
2022/10/21 02:51:12;;;;;;;3.15;2.62;;;9.80;87.80;;;;;;1924905;74;21010;-52
2022/10/21 02:53:42;;;;;;;3.87;2.90;;;9.70;87.80;;;;;;1924767;74;21043;-54
2022/10/21 02:56:11;;;;;;;3.27;2.62;;;9.70;87.80;;;;;;1924906;74;21061;-50
2022/10/21 02:58:40;;;;;;;4.75;2.58;;;9.70;87.90;;;;;;1924800;74;21035;-54
2022/10/21 03:01:09;;;;;;;3.27;2.45;;;9.70;87.80;;;;;;1924745;74;21067;-50
2022/10/21 03:03:38;;;;;;;3.85;2.55;;;9.80;87.80;;;;;;1924770;74;21006;-52
2022/10/21 03:06:07;;;;;;;5.70;2.90;;;9.80;87.80;;;;;;1924806;74;21100;-50
2022/10/21 03:08:37;;;;;;;3.47;2.55;;;9.80;87.70;;;;;;1924784;74;21106;-50
2022/10/21 03:11:06;;;;;;;4.55;2.80;;;9.80;87.40;;;;;;1924873;74;21077;-50
2022/10/21 03:13:35;;;;;;;3.22;2.45;;;9.90;87.50;;;;;;1924813;74;21081;-53
2022/10/21 03:16:04;;;;;;;2.83;2.42;;;9.90;87.20;;;;;;1924821;74;20999;-53
2022/10/21 03:18:33;;;;;;;3.35;3.05;;;9.90;87.20;;;;;;1924795;74;21010;-53
2022/10/21 03:21:02;;;;;;;2.00;1.55;;;9.90;87.30;;;;;;1924789;74;21092;-52
2022/10/21 03:23:31;;;;;;;2.65;2.37;;;9.80;86.90;;;;;;1924849;74;21080;-52
2022/10/21 03:26:00;;;;;;;3.17;2.80;;;9.90;87.10;;;;;;1924797;74;21011;-50
2022/10/21 03:28:30;;;;;;;3.12;2.80;;;9.90;87.10;;;;;;1924860;74;21015;-53
2022/10/21 03:30:59;;;;;;;4.45;2.60;;;9.90;87.20;;;;;;1924724;74;21077;-53
2022/10/21 03:33:28;;;;;;;2.85;2.50;;;9.90;87.10;;;;;;1924772;74;21019;-51
2022/10/21 03:35:57;;;;;;;3.22;2.00;;;9.90;87.10;;;;;;1924836;74;21007;-50
2022/10/21 03:38:26;;;;;;;2.45;1.90;;;9.90;87.30;;;;;;1924730;74;21066;-50
2022/10/21 03:40:55;;;;;;;3.98;3.22;;;9.90;87.50;;;;;;1924704;74;21342;-53
2022/10/21 03:43:24;;;;;;;4.70;3.72;;;9.90;87.70;;;;;;1924749;74;21065;-51
2022/10/21 03:45:54;;;;;;;4.78;2.98;;;9.90;88.00;;;;;;1924836;74;21007;-51
2022/10/21 03:48:23;;;;;;;3.35;2.70;;;9.90;88.00;;;;;;1924734;74;21007;-50
2022/10/21 03:50:52;;;;;;;3.17;2.87;;;9.90;88.60;;;;;;1924755;74;21092;-50
2022/10/21 03:53:21;;;;;;;4.75;2.58;;;9.90;88.60;;;;;;1924631;74;21054;-51
2022/10/21 03:55:54;;;;;;;4.45;2.55;;;9.90;89.00;;;;;;1924619;74;21003;-52
2022/10/21 03:58:24;;;;;;;6.65;2.98;;;9.90;89.30;;;;;;1924615;74;21096;-51
2022/10/21 04:00:53;;;;;;;3.05;2.70;;;9.80;89.10;;;;;;1924565;74;21019;-53
2022/10/21 04:03:22;;;;;;;5.28;4.17;;;9.80;90.00;;;;;;1924547;74;21038;-50
2022/10/21 04:05:52;;;;;;;4.30;3.30;;;9.80;89.40;;;;;;1924678;74;21006;-52
2022/10/21 04:08:21;;;;;;;4.70;3.12;;;9.80;89.90;;;;;;1924626;74;21031;-52
2022/10/21 04:10:50;;;;;;;4.47;2.87;;;9.80;90.20;;;;;;1924586;74;21022;-50
2022/10/21 04:13:19;;;;;;;4.47;3.27;;;9.80;90.30;;;;;;1924852;74;21084;-52
2022/10/21 04:15:48;;;;;;;3.45;3.15;;;9.80;90.40;;;;;;1924743;74;21089;-52
2022/10/21 04:18:17;;;;;;;4.05;3.30;;;9.80;90.20;;;;;;1924607;74;21011;-53
2022/10/21 04:20:47;;;;;;;2.58;2.37;;;9.80;90.20;;;;;;1924733;74;21115;-54
2022/10/21 04:23:16;;;;;;;6.45;4.10;;;9.80;90.30;;;;;;1924568;74;21015;-52
2022/10/21 04:25:46;;;;;;;4.28;2.87;;;9.80;90.30;;;;;;1924639;74;21046;-50
2022/10/21 04:28:15;;;;;;;3.00;2.70;;;9.80;90.40;;;;;;1924614;74;21031;-53
2022/10/21 04:30:44;;;;;;;4.65;2.92;;;9.80;90.60;;;;;;1924517;74;21147;-52
2022/10/21 04:33:13;;;;;;;5.10;3.30;;;9.80;90.60;;;;;;1924581;74;21100;-53
2022/10/21 04:35:43;;;;;;;6.20;3.67;;;9.80;90.60;;;;;;1924556;74;20987;-53
2022/10/21 04:38:12;;;;;;;5.72;3.55;;;9.80;90.80;;;;;;1924455;74;21070;-50
2022/10/21 04:40:41;;;;;;;2.92;2.55;;;9.80;90.70;;;;;;1924543;74;21010;-51
2022/10/21 04:43:10;;;;;;;5.42;3.72;;;9.80;90.80;;;;;;1924655;74;21085;-48
2022/10/21 04:45:40;;;;;;;4.40;3.72;;;9.80;90.70;;;;;;1924609;74;21016;-52
2022/10/21 04:48:09;;;;;;;5.12;3.58;;;9.80;90.60;;;;;;1924564;74;21083;-51
2022/10/21 04:50:38;;;;;;;7.35;3.65;;;9.80;90.80;;;;;;1924570;74;21034;-52
2022/10/21 04:53:07;;;;;;;5.35;4.10;;;9.80;90.80;;;;;;1924638;74;21034;-49
2022/10/21 04:55:40;;;;;;;5.05;3.30;;;9.80;90.80;;;;;;1924909;74;21078;-48
2022/10/21 04:58:10;;;;;;;6.67;4.15;;;9.80;90.80;;;;;;1924873;74;21047;-51
2022/10/21 05:00:39;;;;;;;4.55;4.03;;;9.90;90.90;;;;;;1924652;74;21046;-50
2022/10/21 05:03:08;;;;;;;4.90;4.22;;;9.90;90.90;;;;;;1924602;74;21027;-53
2022/10/21 05:05:37;;;;;;;7.30;4.35;;;9.90;91.00;;;;;;1924623;74;21065;-51
2022/10/21 05:08:06;;;;;;;5.90;4.15;;;9.90;90.80;;;;;;1924525;74;21368;-50
2022/10/21 05:10:36;;;;;;;5.12;4.50;;;9.90;91.10;;;;;;1924704;74;21088;-54
2022/10/21 05:13:05;;;;;;;4.53;4.12;;;9.90;91.00;;;;;;1924565;74;20987;-53
2022/10/21 05:15:34;;;;;;;7.35;4.58;;;9.90;91.10;;;;;;1924626;74;21017;-49
2022/10/21 05:18:03;;;;;;;5.15;3.95;;;9.90;91.20;;;;;;1924522;74;21489;-51
2022/10/21 05:20:32;;;;;;;5.55;5.00;;;9.90;91.30;;;;;;1924734;74;21027;-52
2022/10/21 05:23:01;;;;;;;5.90;4.40;;;9.90;91.10;;;;;;1924549;74;21027;-53
2022/10/21 05:25:30;;;;;;;7.25;5.20;;;9.90;91.30;;;;;;1924574;74;21026;-52
2022/10/21 05:28:00;;;;;;;8.05;5.83;;;9.90;91.30;;;;;;1924570;74;21120;-52
2022/10/21 05:30:29;;;;;;;8.95;4.87;;;9.90;91.10;;;;;;1924488;74;21042;-53
2022/10/21 05:32:58;;;;;;;6.25;5.65;;;10.00;91.20;;;;;;1924476;74;21077;-52
2022/10/21 05:35:27;;;;;;;8.58;7.65;;;10.00;91.20;;;;;;1924527;74;21132;-55
2022/10/21 05:37:56;;;;;;;8.18;6.50;;;10.00;91.10;;;;;;1924594;74;21023;-52
2022/10/21 05:40:25;;;;;;;13.08;8.15;;;10.00;91.20;;;;;;1924545;74;21069;-53
2022/10/21 05:42:54;;;;;;;7.60;6.40;;;10.00;91.20;;;;;;1924443;74;21023;-54
2022/10/21 05:45:23;;;;;;;16.00;10.20;;;10.00;91.30;;;;;;1924591;74;21023;-54
2022/10/21 05:47:52;;;;;;;6.15;5.55;;;10.00;91.40;;;;;;1924421;74;21022;-54
2022/10/21 05:50:22;;;;;;;8.53;7.33;;;10.10;91.40;;;;;;1924395;74;21073;-52
2022/10/21 05:52:51;;;;;;;8.10;5.20;;;10.10;91.40;;;;;;1924526;74;20983;-54
2022/10/21 05:55:21;;;;;;;4.72;4.25;;;10.10;91.60;;;;;;1910466;74;21071;-51
2022/10/21 05:57:50;;;;;;;6.00;5.40;;;10.10;91.50;;;;;;1905151;75;21023;-54
2022/10/21 06:00:19;;;;;;;7.45;5.53;;;10.10;91.40;;;;;;1905284;75;21040;-53
2022/10/21 06:02:48;;;;;;;8.58;5.42;;;10.20;91.40;;;;;;1905121;75;21019;-51
2022/10/21 06:05:18;;;;;;;7.22;5.67;;;10.10;91.40;;;;;;1905144;75;21047;-54
2022/10/21 06:07:47;;;;;;;7.03;5.47;;;10.20;91.60;;;;;;1905287;75;21136;-53
2022/10/21 06:10:16;;;;;;;6.12;5.12;;;10.20;91.50;;;;;;1905144;75;21081;-50
2022/10/21 06:12:45;;;;;;;9.10;5.72;;;10.30;91.50;;;;;;1905015;75;21512;-50
2022/10/21 06:15:15;;;;;;;6.05;4.72;;;10.30;91.50;;;;;;1905173;75;21031;-51
2022/10/21 06:17:44;;;;;;;8.63;4.50;;;10.30;91.50;;;;;;1905043;74;21438;-54
2022/10/21 06:20:13;;;;;;;7.35;5.08;;;10.40;91.50;;;;;;1905128;75;21020;-53
2022/10/21 06:22:42;;;;;;;7.35;4.37;;;10.40;91.50;;;;;;1905059;75;20983;-54
2022/10/21 06:25:11;;;;;;;6.70;5.30;;;10.40;91.60;;;;;;1905190;75;21089;-55
2022/10/21 06:27:41;;;;;;;4.42;4.03;;;10.40;91.40;;;;;;1905299;75;21102;-50
2022/10/21 06:30:11;;;;;;;7.70;5.45;;;10.40;91.40;;;;;;1905127;75;21085;-52
2022/10/21 06:32:40;;;;;;;6.03;4.70;;;10.40;91.50;;;;;;1905389;75;21055;-52
2022/10/21 06:35:09;;;;;;;4.72;3.65;;;10.40;91.60;;;;;;1905189;75;21023;-51
2022/10/21 06:37:39;;;;;;;9.88;5.30;;;10.40;92.00;;;;;;1905113;75;21011;-53
2022/10/21 06:40:08;;;;;;;6.03;4.75;;;10.50;91.70;;;;;;1905272;75;21113;-52
2022/10/21 06:42:37;;;;;;;5.55;4.97;;;10.50;91.90;;;;;;1905153;75;21067;-54
2022/10/21 06:45:07;;;;;;;4.90;3.80;;;10.50;91.80;;;;;;1905184;75;21040;-51
2022/10/21 06:47:37;;;;;;;6.03;4.60;;;10.50;91.80;;;;;;1905460;75;21077;-54
2022/10/21 06:50:06;;;;;;;6.33;4.80;;;10.50;91.80;;;;;;1905221;75;21027;-54
2022/10/21 06:52:36;;;;;;;5.05;4.55;;;10.50;91.70;;;;;;1905245;75;21016;-54
2022/10/21 06:55:06;;;;;;;5.22;4.78;;;10.50;91.70;;;;;;1911669;74;21038;-51
2022/10/21 06:57:35;;;;;;;5.22;4.72;;;10.50;91.80;;;;;;1924482;74;21054;-51
2022/10/21 07:00:05;;;;;;;7.25;5.20;;;10.50;91.80;;;;;;1924632;74;21088;-53
2022/10/21 07:02:34;;;;;;;7.03;5.00;;;10.50;92.00;;;;;;1924638;74;21080;-54
2022/10/21 07:05:03;;;;;;;5.58;5.00;;;10.50;92.50;;;;;;1924657;74;21010;-53
2022/10/21 07:07:33;;;;;;;6.37;5.15;;;10.50;92.10;;;;;;1924606;74;21066;-52
2022/10/21 07:10:02;;;;;;;15.88;6.42;;;10.60;92.30;;;;;;1924647;74;21108;-49
2022/10/21 07:12:31;;;;;;;9.43;5.83;;;10.60;92.30;;;;;;1924404;74;20986;-50
2022/10/21 07:15:00;;;;;;;5.60;5.10;;;10.60;92.20;;;;;;1924673;74;21524;-54
2022/10/21 07:17:30;;;;;;;7.78;5.03;;;10.60;92.10;;;;;;1924539;74;21077;-54
2022/10/21 07:19:59;;;;;;;5.40;4.90;;;10.60;92.10;;;;;;1924775;74;21582;-54
2022/10/21 07:22:28;;;;;;;6.00;5.42;;;10.70;92.30;;;;;;1924492;74;21081;-55
2022/10/21 07:24:58;;;;;;;6.10;4.70;;;10.70;92.30;;;;;;1924433;74;21042;-54
2022/10/21 07:27:27;;;;;;;6.10;5.12;;;10.70;92.20;;;;;;1924487;74;21022;-53
2022/10/21 07:29:56;;;;;;;5.87;5.28;;;10.80;92.30;;;;;;1924632;74;21023;-49
2022/10/21 07:32:25;;;;;;;6.78;4.85;;;10.90;92.30;;;;;;1924568;74;21010;-55
2022/10/21 07:34:54;;;;;;;6.08;5.00;;;10.90;92.40;;;;;;1924451;74;20995;-55
2022/10/21 07:37:24;;;;;;;6.25;4.75;;;10.90;92.30;;;;;;1924439;74;21046;-55
2022/10/21 07:39:53;;;;;;;6.22;4.72;;;11.00;92.10;;;;;;1924491;74;21026;-54
2022/10/21 07:42:23;;;;;;;5.15;4.50;;;11.00;92.00;;;;;;1924457;74;21070;-55
2022/10/21 07:44:58;;;;;;;7.05;4.40;;;11.10;91.80;;;;;;1924487;74;21068;-54
2022/10/21 07:47:24;;;;;;;3.67;3.35;;;11.10;92.00;;;;;;1924015;74;21105;-53
2022/10/21 07:49:53;;;;;;;7.37;4.10;;;11.10;91.70;;;;;;1924453;74;21026;-53
2022/10/21 07:52:22;;;;;;;4.83;4.42;;;11.10;91.70;;;;;;1924243;74;21473;-54
2022/10/21 07:54:52;;;;;;;5.12;3.42;;;11.10;91.60;;;;;;1924501;74;21080;-53
2022/10/21 07:57:21;;;;;;;4.30;3.90;;;11.20;91.80;;;;;;1924364;74;21046;-56
2022/10/21 07:59:50;;;;;;;6.42;4.65;;;11.20;91.60;;;;;;1924404;74;21002;-52
2022/10/21 08:02:19;;;;;;;3.70;3.25;;;11.20;91.60;;;;;;1924376;74;21068;-52
2022/10/21 08:04:49;;;;;;;3.65;3.27;;;11.20;91.30;;;;;;1924451;74;21046;-54
2022/10/21 08:07:18;;;;;;;4.53;3.95;;;11.30;91.60;;;;;;1924577;74;21046;-52
2022/10/21 08:09:47;;;;;;;2.50;2.30;;;11.30;91.40;;;;;;1924476;74;21112;-54
2022/10/21 08:12:16;;;;;;;3.40;2.52;;;11.30;91.30;;;;;;1924611;74;21132;-55
2022/10/21 08:14:45;;;;;;;3.25;2.95;;;11.30;91.50;;;;;;1924521;74;21064;-55
2022/10/21 08:17:14;;;;;;;4.55;2.90;;;11.30;91.40;;;;;;1924403;74;21023;-55
2022/10/21 08:19:43;;;;;;;5.22;3.65;;;11.30;91.70;;;;;;1924509;74;21031;-54
2022/10/21 08:22:13;;;;;;;4.28;3.75;;;11.30;91.80;;;;;;1924436;74;21499;-54
2022/10/21 08:24:42;;;;;;;3.55;3.25;;;11.40;91.80;;;;;;1924426;74;21156;-54
2022/10/21 08:27:11;;;;;;;3.70;3.27;;;11.40;91.70;;;;;;1924501;74;21011;-54
2022/10/21 08:29:40;;;;;;;2.70;2.12;;;11.40;91.70;;;;;;1924583;74;21088;-53
2022/10/21 08:32:09;;;;;;;4.22;3.12;;;11.50;91.40;;;;;;1924482;74;21129;-53
2022/10/21 08:34:39;;;;;;;3.90;3.37;;;11.50;91.70;;;;;;1924568;74;21066;-55
2022/10/21 08:37:08;;;;;;;5.45;3.55;;;11.60;91.60;;;;;;1924613;74;21072;-54
2022/10/21 08:39:37;;;;;;;4.15;3.10;;;11.70;91.50;;;;;;1924652;74;21035;-54
2022/10/21 08:42:09;;;;;;;4.53;3.33;;;11.90;91.00;;;;;;1924582;74;21042;-55
2022/10/21 08:44:43;;;;;;;4.50;3.45;;;11.90;90.50;;;;;;1924621;74;21042;-56
2022/10/21 08:47:21;;;;;;;4.95;3.50;;;12.00;90.10;;;;;;1924764;74;21520;-54
2022/10/21 08:50:01;;;;;;;3.20;2.90;;;12.00;90.20;;;;;;1924578;74;21484;-55
2022/10/21 08:52:36;;;;;;;3.10;2.35;;;12.00;90.20;;;;;;1916857;74;21481;-55
2022/10/21 08:55:08;;;;;;;6.58;3.65;;;12.10;90.20;;;;;;1890728;74;21183;-55
2022/10/21 08:57:38;;;;;;;3.15;2.55;;;12.10;90.90;;;;;;1924204;74;21058;-56
2022/10/21 09:00:12;;;;;;;3.70;3.00;;;12.10;91.00;;;;;;1923474;74;21179;-56
2022/10/21 09:02:56;;;;;;;7.95;3.50;;;12.20;89.20;;;;;;1924115;74;21053;-55
2022/10/21 09:05:44;;;;;;;5.30;2.90;;;12.20;90.30;;;;;;1923412;74;21182;-56
2022/10/21 09:08:33;;;;;;;7.75;3.00;;;12.20;88.70;;;;;;1923729;74;21090;-54
2022/10/21 09:11:11;;;;;;;3.12;2.72;;;12.20;86.70;;;;;;1924190;74;21006;-54
2022/10/21 09:14:15;;;;;;;2.50;2.30;;;12.20;89.00;;;;;;1923722;74;21055;-51
2022/10/21 09:16:49;;;;;;;2.70;1.77;;;12.30;89.90;;;;;;1924093;74;21042;-53
2022/10/21 09:19:45;;;;;;;7.15;2.95;;;12.40;89.60;;;;;;1923889;74;21140;-52
2022/10/21 09:22:26;;;;;;;2.95;2.33;;;12.50;89.60;;;;;;1923894;74;21104;-56
2022/10/21 09:24:59;;;;;;;7.42;2.00;;;12.50;87.20;;;;;;1924112;74;21038;-56
2022/10/21 09:27:29;;;;;;;8.10;3.05;;;12.50;87.50;;;;;;1920788;74;21503;-57
2022/10/21 09:30:00;;;;;;;2.90;2.20;;;12.60;88.00;;;;;;1923778;74;21079;-54
2022/10/21 09:32:38;;;;;;;2.00;1.80;;;12.60;88.30;;;;;;1923872;74;21055;-56
2022/10/21 09:35:13;;;;;;;4.85;2.52;;;12.60;88.00;;;;;;1922937;74;21109;-54
2022/10/21 09:37:47;;;;;;;3.40;2.30;;;12.70;87.80;;;;;;1923661;74;21039;-54
2022/10/21 09:40:28;;;;;;;2.55;2.17;;;12.70;88.10;;;;;;1923530;74;21250;-55
2022/10/21 09:43:00;;;;;;;3.00;1.80;;;12.80;87.40;;;;;;1923843;74;21055;-54
2022/10/21 09:45:34;;;;;;;4.58;1.87;;;12.80;86.90;;;;;;1923977;74;21149;-55
2022/10/21 09:48:21;;;;;;;4.70;1.98;;;12.80;86.00;;;;;;1924056;74;21087;-51
2022/10/21 09:50:56;;;;;;;5.05;2.70;;;12.90;86.10;;;;;;1923972;74;21028;-53
2022/10/21 09:53:33;;;;;;;4.60;2.25;;;12.90;86.90;;;;;;1923423;74;21049;-53
2022/10/21 09:56:08;;;;;;;5.85;2.80;;;12.90;86.90;;;;;;1921926;74;21047;-53
2022/10/21 09:58:40;;;;;;;3.90;3.00;;;12.90;85.50;;;;;;1923668;74;21486;-53
2022/10/21 10:01:11;;;;;;;2.77;2.25;;;12.90;84.00;;;;;;1923780;74;22114;-54
2022/10/21 10:03:45;;;;;;;4.00;2.00;;;12.80;83.50;;;;;;1923215;74;21130;-56
2022/10/21 10:06:16;;;;;;;3.33;2.87;;;12.90;85.10;;;;;;1924258;74;21015;-55
2022/10/21 10:08:46;;;;;;;2.75;2.20;;;12.90;84.10;;;;;;1920955;74;21098;-54
2022/10/21 10:11:19;;;;;;;3.10;2.80;;;12.90;83.70;;;;;;1923944;74;21027;-55
2022/10/21 10:13:50;;;;;;;4.28;2.05;;;12.90;84.30;;;;;;1923782;74;21031;-54
2022/10/21 10:16:27;;;;;;;4.03;2.52;;;12.90;84.60;;;;;;1923781;74;21071;-55
2022/10/21 10:19:16;;;;;;;5.05;3.00;;;12.90;84.70;;;;;;1923130;74;21023;-50
2022/10/21 10:21:51;;;;;;;4.85;3.40;;;12.90;85.30;;;;;;1921714;74;21099;-54
2022/10/21 10:24:21;;;;;;;2.85;2.50;;;12.90;84.10;;;;;;1922881;74;21164;-53
2022/10/21 10:26:50;;;;;;;7.80;3.62;;;12.80;84.10;;;;;;1923909;74;21095;-50
2022/10/21 10:29:27;;;;;;;8.70;4.40;;;12.70;84.60;;;;;;1923888;74;21610;-47
2022/10/21 10:31:59;;;;;;;4.58;3.67;;;12.70;84.90;;;;;;1923984;74;21011;-53
2022/10/21 10:34:31;;;;;;;3.65;2.92;;;12.60;85.10;;;;;;1924173;74;21031;-63
2022/10/21 10:37:08;;;;;;;6.62;2.72;;;12.60;85.00;;;;;;1923798;74;21091;-62
2022/10/21 10:39:39;;;;;;;6.85;3.55;;;12.60;84.10;;;;;;1922674;74;21090;-61
2022/10/21 10:42:09;;;;;;;4.65;3.33;;;12.50;84.00;;;;;;1923991;74;21090;-61
2022/10/21 10:44:40;;;;;;;9.23;5.28;;;12.40;84.20;;;;;;1923841;74;21048;-60
2022/10/21 10:47:27;;;;;;;8.30;4.15;;;12.40;84.80;;;;;;1923566;74;21095;-60
2022/10/21 10:49:57;;;;;;;6.20;3.52;;;12.30;85.10;;;;;;1922247;74;21152;-60
2022/10/21 10:52:26;;;;;;;6.45;4.30;;;12.30;84.70;;;;;;1923813;74;21031;-60
2022/10/21 10:55:16;;;;;;;7.20;3.47;;;12.30;85.10;;;;;;1924042;74;21036;-59
2022/10/21 10:57:47;;;;;;;3.25;2.55;;;12.30;85.30;;;;;;1919727;74;21177;-60
2022/10/21 11:00:21;;;;;;;3.12;2.55;;;12.40;85.00;;;;;;1913926;75;21557;-61
2022/10/21 11:03:06;;;;;;;6.30;2.63;;;12.40;83.90;;;;;;1914308;75;21028;-59
2022/10/21 11:05:44;;;;;;;4.03;2.72;;;12.40;83.60;;;;;;1913651;75;21032;-59
2022/10/21 11:08:15;;;;;;;3.45;2.95;;;12.40;82.90;;;;;;1914022;75;21079;-60
2022/10/21 11:11:02;;;;;;;5.40;3.35;;;12.40;83.50;;;;;;1914156;75;21052;-62
2022/10/21 11:13:36;;;;;;;6.28;3.55;;;12.40;83.90;;;;;;1911996;75;21045;-62
2022/10/21 11:16:11;;;;;;;6.70;3.52;;;12.50;83.70;;;;;;1914021;75;21122;-62
2022/10/21 11:19:00;;;;;;;3.95;3.37;;;12.50;84.00;;;;;;1913997;75;21168;-61
2022/10/21 11:21:53;;;;;;;3.27;2.95;;;12.50;83.40;;;;;;1913920;75;21004;-61
2022/10/21 11:24:31;;;;;;;3.90;2.98;;;12.60;82.00;;;;;;1914148;75;21024;-61
2022/10/21 11:27:24;;;;;;;3.92;3.45;;;12.60;82.10;;;;;;1898382;75;21153;-61
2022/10/21 11:30:07;;;;;;;7.35;3.33;;;12.60;81.70;;;;;;1913780;75;21542;-62
2022/10/21 11:32:42;;;;;;;3.83;3.10;;;12.60;81.60;;;;;;1913768;75;21067;-64
2022/10/21 11:35:18;;;;;;;;;;;12.50;81.70;;;;;;1916946;75;21040;-62
2022/10/21 11:37:58;;;;;;;7.40;3.80;;;12.50;82.40;;;;;;1913930;75;20161;-62
2022/10/21 11:40:39;;;;;;;5.97;4.30;;;12.60;82.20;;;;;;1912430;75;21036;-63
2022/10/21 11:43:32;;;;;;;7.47;3.72;;;12.60;81.90;;;;;;1913903;75;21145;-63
2022/10/21 11:46:07;;;;;;;3.35;2.92;;;12.60;82.20;;;;;;1914043;75;21099;-63
2022/10/21 11:48:45;;;;;;;17.40;7.30;;;12.50;82.60;;;;;;1914295;75;21091;-64
2022/10/21 11:51:43;;;;;;;13.83;7.83;;;12.50;81.80;;;;;;1913518;75;21505;-64
2022/10/21 11:54:39;;;;;;;6.40;3.72;;;12.40;82.00;;;;;;1914024;75;21177;-66
2022/10/21 11:57:11;;;;;;;15.08;6.10;;;12.50;82.50;;;;;;1914009;75;21086;-59
2022/10/21 12:00:15;;;;;;;13.95;8.00;;;12.40;82.30;;;;;;1911162;75;21089;-62
2022/10/21 12:02:46;;;;;;;9.98;5.42;;;12.40;82.10;;;;;;1913883;75;21123;-63
2022/10/21 12:05:21;;;;;;;8.70;5.08;;;12.40;82.30;;;;;;1913844;75;21048;-63
2022/10/21 12:08:10;;;;;;;8.48;4.95;;;12.40;82.80;;;;;;1914142;75;21146;-60
2022/10/21 12:10:41;;;;;;;5.25;3.15;;;12.50;82.80;;;;;;1914130;75;21486;-60
2022/10/21 12:13:25;;;;;;;7.10;4.15;;;12.50;82.70;;;;;;1914103;75;21023;-59
2022/10/21 12:16:09;;;;;;;2.60;2.22;;;12.50;81.90;;;;;;1914650;75;21012;-59
2022/10/21 12:18:53;;;;;;;16.95;8.15;;;12.50;81.90;;;;;;1859615;75;21020;-59
2022/10/21 12:21:25;;;;;;;14.43;7.95;;;12.40;81.60;;;;;;1913750;75;21059;-59
2022/10/21 12:24:12;;;;;;;11.95;4.78;;;12.40;81.50;;;;;;1914524;75;21044;-60
2022/10/21 12:26:43;;;;;;;5.08;3.17;;;12.40;82.20;;;;;;1913003;75;21020;-59
2022/10/21 12:29:18;;;;;;;7.08;3.87;;;12.40;82.30;;;;;;1913983;75;21086;-58
2022/10/21 12:31:52;;;;;;;5.83;3.83;;;12.40;82.40;;;;;;1914755;75;21149;-59
2022/10/21 12:34:23;;;;;;;10.70;5.53;;;12.40;82.50;;;;;;1914439;75;21598;-59
2022/10/21 12:36:53;;;;;;;8.20;4.30;;;12.40;82.20;;;;;;1914481;75;21098;-58
2022/10/21 12:39:37;;;;;;;7.12;3.45;;;12.40;82.50;;;;;;1914400;75;21137;-59
2022/10/21 12:42:21;;;;;;;4.65;3.15;;;12.40;81.90;;;;;;1914545;75;21063;-59
2022/10/21 12:44:52;;;;;;;6.25;4.10;;;12.40;80.90;;;;;;1914292;75;21138;-58
2022/10/21 12:47:32;;;;;;;4.92;3.22;;;12.40;81.30;;;;;;1914522;75;21052;-58
2022/10/21 12:50:16;;;;;;;5.30;3.08;;;12.40;81.70;;;;;;1913636;75;21023;-58
2022/10/21 12:52:48;;;;;;;4.80;3.55;;;12.40;81.40;;;;;;1914428;75;21032;-59
2022/10/21 12:55:20;;;;;;;6.33;4.70;;;12.40;81.60;;;;;;1913012;74;21068;-59
2022/10/21 12:57:57;;;;;;;6.22;4.17;;;12.40;81.20;;;;;;1912623;75;21200;-57
2022/10/21 13:00:32;;;;;;;6.08;3.65;;;12.40;81.30;;;;;;1902186;75;21014;-58
2022/10/21 13:03:22;;;;;;;7.35;4.10;;;12.40;81.70;;;;;;1902180;75;21110;-58
2022/10/21 13:06:01;;;;;;;12.73;5.25;;;12.40;82.20;;;;;;1902193;75;21083;-58
2022/10/21 13:08:32;;;;;;;8.85;4.78;;;12.40;82.50;;;;;;1902270;75;21090;-58
2022/10/21 13:11:07;;;;;;;10.98;5.85;;;12.40;82.10;;;;;;1901181;75;21096;-58
2022/10/21 13:13:41;;;;;;;8.75;5.25;;;12.40;82.30;;;;;;1902153;75;21096;-58
2022/10/21 13:16:19;;;;;;;9.60;4.83;;;12.30;82.80;;;;;;1902287;75;21079;-59
2022/10/21 13:18:56;;;;;;;13.13;6.25;;;12.30;83.10;;;;;;1902038;75;21492;-59
2022/10/21 13:21:34;;;;;;;11.88;5.65;;;12.30;83.40;;;;;;1902241;75;21118;-58